Time;durP1;ratioP1;P1;durP2;ratioP2;P2;SDS_P1;SDS_P2;PMS_P1;PMS_P2;Temp;Humidity;BMP_temperature;BMP_pressure;BME280_temperature;BME280_humidity;BME280_pressure;Samples;Min_cycle;Max_cycle;Signal;HPM_P1;HPM_P2
2022/10/23 00:02:53;;;;;;;7.60;3.88;;;;;;;12.78;71.40;99188.94;5150600;28;20090;-83
2022/10/23 00:05:43;;;;;;;7.70;3.95;;;;;;;12.62;71.06;99181.69;5142966;28;20493;-82
2022/10/23 00:08:34;;;;;;;8.05;3.85;;;;;;;12.50;71.61;99169.59;5143783;28;20062;-82
2022/10/23 00:11:26;;;;;;;7.80;3.90;;;;;;;12.57;71.66;99168.81;5136624;28;20476;-83
2022/10/23 00:14:20;;;;;;;14.52;3.78;;;;;;;12.56;70.97;99158.34;5134945;28;20511;-82
2022/10/23 00:17:11;;;;;;;8.55;3.85;;;;;;;12.53;71.16;99151.50;5150701;28;20062;-83
2022/10/23 00:20:02;;;;;;;6.00;3.80;;;;;;;12.60;71.12;99157.88;5158567;28;20061;-82
2022/10/23 00:22:53;;;;;;;6.55;3.67;;;;;;;12.56;71.64;99153.03;5138138;28;20061;-83
2022/10/23 00:25:43;;;;;;;8.27;4.22;;;;;;;12.39;71.52;99146.72;5129934;28;20133;-83
2022/10/23 00:28:33;;;;;;;6.90;3.90;;;;;;;12.13;70.73;99123.53;5129960;28;20061;-82
2022/10/23 00:31:24;;;;;;;9.07;4.13;;;;;;;12.23;71.71;99172.16;5156278;28;20479;-82
2022/10/23 00:34:14;;;;;;;6.85;3.70;;;;;;;12.19;71.24;99170.78;5149896;28;20135;-83
2022/10/23 00:37:04;;;;;;;8.13;4.10;;;;;;;12.19;71.62;99160.16;5149685;28;20426;-82
2022/10/23 00:39:54;;;;;;;9.77;3.88;;;;;;;12.19;71.01;99151.34;5154890;28;20049;-82
2022/10/23 00:42:44;;;;;;;11.07;4.43;;;;;;;12.26;71.90;99149.75;5180726;28;20056;-82
2022/10/23 00:45:34;;;;;;;9.18;3.63;;;;;;;12.32;71.64;99138.53;5143462;28;20061;-82
2022/10/23 00:48:26;;;;;;;5.68;4.15;;;;;;;12.12;72.07;99145.78;5115354;28;20429;-83
2022/10/23 00:51:17;;;;;;;11.57;3.78;;;;;;;12.14;70.77;99162.41;5148609;28;20101;-83
2022/10/23 00:54:08;;;;;;;9.65;4.60;;;;;;;12.00;71.61;99139.00;5148622;28;20072;-82
2022/10/23 00:57:15;;;;;;;8.77;3.83;;;;;;;12.08;71.33;99157.69;5131542;28;20046;-82
2022/10/23 01:00:05;;;;;;;8.45;4.07;;;;;;;12.05;72.08;99147.34;5150797;28;20046;-83
2022/10/23 01:02:56;;;;;;;9.48;4.97;;;;;;;12.32;72.69;99159.78;5150633;28;20043;-83
2022/10/23 01:06:02;;;;;;;8.70;4.75;;;;;;;12.27;72.69;99158.56;5137087;28;20061;-84
2022/10/23 01:09:14;;;;;;;9.32;4.47;;;;;;;12.10;72.31;99133.63;5155500;28;20073;-83
2022/10/23 01:12:19;;;;;;;8.32;4.20;;;;;;;12.02;71.83;99131.75;5147696;28;20125;-83
2022/10/23 01:15:21;;;;;;;9.13;4.38;;;;;;;12.08;71.61;99152.38;5149276;28;20050;-83
2022/10/23 01:18:23;;;;;;;9.13;4.05;;;;;;;11.96;71.22;99138.47;5148611;28;20190;-83
2022/10/23 01:21:22;;;;;;;6.20;4.07;;;;;;;12.06;71.99;99146.38;5160554;28;20050;-83
2022/10/23 01:24:44;;;;;;;8.00;4.35;;;;;;;12.20;73.44;99113.97;5157362;28;20084;-82
2022/10/23 01:27:44;;;;;;;9.48;4.97;;;;;;;12.25;73.28;99099.38;5167629;28;20166;-83
2022/10/23 01:30:41;;;;;;;9.10;4.28;;;;;;;12.36;73.06;99125.75;5164616;28;20070;-83
2022/10/23 01:33:40;;;;;;;9.90;4.32;;;;;;;12.20;72.23;99119.28;5185647;28;20077;-84
2022/10/23 01:36:32;;;;;;;9.50;4.57;;;;;;;12.41;73.69;99137.59;5147227;28;20059;-83
2022/10/23 01:39:32;;;;;;;6.80;4.68;;;;;;;12.44;73.57;99117.84;5154634;28;20050;-83
2022/10/23 01:42:38;;;;;;;13.98;4.50;;;;;;;12.21;72.81;99088.22;5166727;28;20061;-82
2022/10/23 01:45:38;;;;;;;16.20;5.38;;;;;;;12.59;74.15;99129.63;5144325;28;20113;-84
2022/10/23 01:48:33;;;;;;;10.10;5.35;;;;;;;12.48;73.54;99107.72;5157935;28;20579;-83
2022/10/23 01:51:27;;;;;;;9.23;5.40;;;;;;;12.34;74.04;99115.25;5162752;28;20074;-83
2022/10/23 01:54:28;;;;;;;10.45;4.68;;;;;;;12.38;73.08;99116.66;5146055;28;20052;-83
2022/10/23 01:57:21;;;;;;;9.80;4.50;;;;;;;12.33;73.37;99118.09;5186929;28;20064;-84
2022/10/23 02:00:14;;;;;;;11.27;4.10;;;;;;;12.33;72.56;99120.75;5164666;28;20519;-83
2022/10/23 02:03:16;;;;;;;8.50;4.32;;;;;;;12.13;71.89;99102.28;5179874;28;20046;-83
2022/10/23 02:06:07;;;;;;;11.10;4.15;;;;;;;12.14;71.75;99122.53;5156523;28;20061;-83
2022/10/23 02:08:57;;;;;;;5.35;4.00;;;;;;;12.08;71.92;99109.03;5157387;28;20058;-83
2022/10/23 02:11:53;;;;;;;6.47;3.92;;;;;;;11.96;72.14;99103.94;5176246;28;20057;-83
2022/10/23 02:15:02;;;;;;;10.63;4.57;;;;;;;12.12;73.75;99115.69;5133217;28;20105;-84
2022/10/23 02:17:58;;;;;;;9.18;4.55;;;;;;;12.09;72.28;99114.19;5156080;28;20065;-83
2022/10/23 02:20:59;;;;;;;9.32;4.55;;;;;;;12.16;72.87;99088.69;5150226;28;20053;-83
2022/10/23 02:23:55;;;;;;;9.40;4.25;;;;;;;12.08;73.24;99072.63;5154021;28;20147;-83
2022/10/23 02:26:52;;;;;;;8.25;4.38;;;;;;;12.22;72.89;99095.22;5158076;28;20066;-83
2022/10/23 02:30:04;;;;;;;13.20;4.22;;;;;;;11.99;72.13;99069.09;5139256;28;20062;-83
2022/10/23 02:32:57;;;;;;;9.40;4.18;;;;;;;12.00;72.30;99085.88;5151083;28;20184;-83
2022/10/23 02:35:48;;;;;;;11.00;3.75;;;;;;;11.91;72.12;99076.13;5143618;28;20057;-84
2022/10/23 02:38:43;;;;;;;6.15;3.47;;;;;;;11.77;72.21;99083.59;5157103;28;20073;-84
2022/10/23 02:41:40;;;;;;;6.82;3.95;;;;;;;11.84;71.52;99091.84;5180059;28;20057;-84
2022/10/23 02:44:32;;;;;;;8.18;3.88;;;;;;;11.75;72.21;99098.88;5143058;28;20054;-83
2022/10/23 02:47:33;;;;;;;5.38;4.00;;;;;;;11.70;72.14;99087.00;5163635;28;20054;-83
2022/10/23 02:50:36;;;;;;;9.98;4.30;;;;;;;11.91;72.48;99071.66;5147973;28;20104;-83
2022/10/23 02:53:56;;;;;;;8.52;4.15;;;;;;;11.87;72.24;99075.59;5160855;28;20200;-83
2022/10/23 02:57:03;;;;;;;6.28;4.15;;;;;;;11.79;72.91;99064.00;5157353;28;20061;-83
2022/10/23 03:00:01;;;;;;;8.00;4.45;;;;;;;11.75;73.08;99060.81;5143674;28;20493;-83
2022/10/23 03:03:16;;;;;;;9.23;3.80;;;;;;;11.85;72.52;99068.75;5151569;28;20500;-83
2022/10/23 03:06:06;;;;;;;10.32;4.28;;;;;;;11.83;72.30;99062.75;5137242;28;20058;-83
2022/10/23 03:09:02;;;;;;;6.95;3.45;;;;;;;11.71;72.48;99033.72;5142600;28;20054;-82
2022/10/23 03:11:53;;;;;;;8.27;4.25;;;;;;;11.85;72.91;99060.78;5152280;28;20062;-85
2022/10/23 03:14:43;;;;;;;8.60;3.95;;;;;;;11.82;72.95;99032.69;5167850;28;20077;-84
2022/10/23 03:17:33;;;;;;;8.48;4.40;;;;;;;11.80;72.23;99036.47;5152688;28;20054;-82
2022/10/23 03:20:24;;;;;;;10.93;5.18;;;;;;;11.68;72.69;99035.84;5118298;28;20057;-83
2022/10/23 03:23:14;;;;;;;7.57;4.68;;;;;;;11.81;72.49;99043.44;5158813;28;20114;-83
2022/10/23 03:26:05;;;;;;;10.38;5.40;;;;;;;11.68;71.75;99027.88;5160012;28;20270;-83
2022/10/23 03:29:03;;;;;;;11.80;5.68;;;;;;;11.73;71.96;99041.56;5152747;28;20050;-83
2022/10/23 03:31:54;;;;;;;12.20;6.18;;;;;;;11.59;71.78;99024.31;5143289;28;20051;-83
2022/10/23 03:34:45;;;;;;;9.52;5.45;;;;;;;11.58;71.58;99033.25;5151954;28;20130;-83
2022/10/23 03:37:35;;;;;;;13.05;5.90;;;;;;;11.57;72.11;99026.28;5164419;28;20082;-84
2022/10/23 03:40:26;;;;;;;13.20;6.40;;;;;;;11.59;72.87;99023.44;5154731;28;20568;-84
2022/10/23 03:43:16;;;;;;;12.80;5.30;;;;;;;11.68;71.82;99030.53;5165249;28;20061;-83
2022/10/23 03:46:11;;;;;;;15.35;5.53;;;;;;;11.65;71.94;99039.63;5151296;28;20160;-83
2022/10/23 03:49:01;;;;;;;8.60;5.00;;;;;;;11.61;72.15;99029.47;5159289;28;20080;-84
2022/10/23 03:51:51;;;;;;;9.73;5.07;;;;;;;11.65;72.04;99042.28;5149711;28;20120;-83
2022/10/23 03:54:43;;;;;;;9.10;4.93;;;;;;;11.61;72.10;99032.94;5151415;28;20054;-84
2022/10/23 03:57:33;;;;;;;8.45;4.80;;;;;;;11.62;72.82;99013.41;5151121;28;20562;-84
2022/10/23 04:00:24;;;;;;;11.65;4.75;;;;;;;11.63;72.27;99033.66;5135806;28;20053;-84
2022/10/23 04:03:14;;;;;;;11.13;4.25;;;;;;;11.58;72.32;99030.59;5143909;28;20168;-84
2022/10/23 04:06:04;;;;;;;9.90;4.20;;;;;;;11.64;72.43;99030.00;5150695;28;20054;-83
2022/10/23 04:08:54;;;;;;;7.03;4.07;;;;;;;11.54;72.61;99029.22;5136994;28;20050;-83
2022/10/23 04:11:44;;;;;;;6.63;4.20;;;;;;;11.49;72.11;99023.53;5151362;28;20046;-83
2022/10/23 04:14:35;;;;;;;7.90;3.97;;;;;;;11.58;72.38;99053.66;5135048;28;20051;-83
2022/10/23 04:17:26;;;;;;;6.47;3.95;;;;;;;11.58;72.00;99051.00;5152409;28;20080;-84
2022/10/23 04:20:17;;;;;;;5.03;3.67;;;;;;;11.57;72.54;99023.63;5154900;28;20061;-84
2022/10/23 04:23:07;;;;;;;5.45;3.35;;;;;;;11.65;72.33;99029.00;5169639;28;20092;-84
2022/10/23 04:25:58;;;;;;;10.45;4.57;;;;;;;11.77;72.96;99042.91;5159383;28;20117;-84
2022/10/23 04:28:48;;;;;;;19.23;8.68;;;;;;;11.64;72.82;99022.03;5154018;28;20061;-85
2022/10/23 04:31:39;;;;;;;5.57;4.05;;;;;;;11.75;72.86;99047.53;5157780;28;20058;-85
2022/10/23 04:34:29;;;;;;;8.52;4.45;;;;;;;11.64;73.22;99031.81;5155607;28;20093;-84
2022/10/23 04:37:19;;;;;;;24.08;10.27;;;;;;;11.56;72.66;99027.25;5190367;28;20084;-85
2022/10/23 04:40:10;;;;;;;5.93;3.80;;;;;;;11.42;72.34;99006.50;5166593;28;20051;-86
2022/10/23 04:43:01;;;;;;;9.60;4.22;;;;;;;11.40;72.73;99025.25;5179386;28;20047;-84
2022/10/23 04:45:55;;;;;;;10.98;3.90;;;;;;;11.44;72.77;99023.13;5153281;28;20054;-85
2022/10/23 04:48:45;;;;;;;5.65;3.50;;;;;;;11.64;73.41;99035.31;5169343;28;20058;-84
2022/10/23 04:51:46;;;;;;;5.93;3.17;;;;;;;11.65;73.08;99036.13;5173427;28;20066;-85
2022/10/23 04:54:55;;;;;;;9.10;3.33;;;;;;;11.50;72.57;99034.00;5166003;28;20073;-85
2022/10/23 04:57:51;;;;;;;6.88;3.38;;;;;;;11.57;72.66;99038.72;5141478;28;20066;-84
2022/10/23 05:00:46;;;;;;;11.20;4.35;;;;;;;11.66;73.08;99040.47;5138913;28;20054;-85
2022/10/23 05:03:43;;;;;;;8.13;4.07;;;;;;;11.47;73.30;99006.91;5137667;28;20065;-85
2022/10/23 05:06:33;;;;;;;9.65;4.00;;;;;;;11.90;73.74;99026.63;5149768;28;20043;-84
2022/10/23 05:09:53;;;;;;;9.57;4.30;;;;;;;11.90;73.77;99026.63;5162543;28;20057;-83
2022/10/23 05:13:01;;;;;;;10.07;4.47;;;;;;;11.85;73.14;99013.78;5159632;28;20417;-84
2022/10/23 05:15:52;;;;;;;6.85;3.92;;;;;;;11.93;73.21;99015.72;5150742;28;20104;-84
2022/10/23 05:18:46;;;;;;;9.50;4.97;;;;;;;11.69;73.93;98989.72;5131174;28;20143;-84
2022/10/23 05:21:39;;;;;;;10.10;5.60;;;;;;;12.08;74.25;99013.34;5154843;28;20050;-84
2022/10/23 05:24:29;;;;;;;15.13;6.82;;;;;;;11.98;74.27;98986.84;5132170;28;20125;-85
2022/10/23 05:27:27;;;;;;;10.10;5.85;;;;;;;11.97;75.25;99001.13;5126845;28;20068;-84
2022/10/23 05:30:18;;;;;;;11.90;5.55;;;;;;;12.13;74.63;99003.94;5155167;28;20447;-84
2022/10/23 05:33:10;;;;;;;11.38;5.63;;;;;;;12.69;72.80;99009.81;5138489;28;20144;-84
2022/10/23 05:36:04;;;;;;;9.40;4.85;;;;;;;12.36;72.76;99006.09;5151657;28;20057;-85
2022/10/23 05:38:56;;;;;;;12.63;5.03;;;;;;;12.31;73.64;99006.56;5148402;28;20157;-84
2022/10/23 05:41:46;;;;;;;10.80;4.78;;;;;;;12.28;72.84;99003.38;5180982;28;20107;-85
2022/10/23 05:44:42;;;;;;;20.05;9.45;;;;;;;12.23;73.07;99001.19;5149583;28;20098;-85
2022/10/23 05:47:52;;;;;;;11.38;5.43;;;;;;;12.48;73.53;99012.00;5170434;28;20050;-83
2022/10/23 05:51:10;;;;;;;11.05;5.15;;;;;;;12.32;73.66;98988.81;5182519;28;20441;-84
2022/10/23 05:54:08;;;;;;;8.75;5.22;;;;;;;12.49;73.00;99001.22;5167161;28;20055;-84
2022/10/23 05:57:03;;;;;;;11.00;5.40;;;;;;;12.45;73.11;98986.56;5141524;28;20471;-84
2022/10/23 06:00:06;;;;;;;24.75;10.95;;;;;;;12.44;72.32;98999.00;5121348;28;20057;-84
2022/10/23 06:03:05;;;;;;;8.65;5.60;;;;;;;12.35;72.80;98991.13;5169301;28;20057;-84
2022/10/23 06:06:02;;;;;;;8.98;4.93;;;;;;;12.31;72.72;98965.84;5155391;28;20066;-83
2022/10/23 06:09:11;;;;;;;8.93;4.22;;;;;;;12.30;73.61;98970.31;5137216;28;20055;-83
2022/10/23 06:12:02;;;;;;;7.63;4.38;;;;;;;12.42;73.25;98987.72;5150368;28;20547;-84
2022/10/23 06:14:54;;;;;;;7.65;3.78;;;;;;;12.48;72.95;98977.41;5148654;28;20046;-83
2022/10/23 06:17:52;;;;;;;11.25;4.18;;;;;;;12.42;73.52;98968.25;5142456;28;20061;-83
2022/10/23 06:20:43;;;;;;;7.30;3.92;;;;;;;12.53;73.14;98970.66;5129537;28;20420;-83
2022/10/23 06:23:44;;;;;;;8.80;4.25;;;;;;;12.64;72.90;98993.47;5139328;28;20077;-84
2022/10/23 06:26:54;;;;;;;10.75;3.97;;;;;;;12.58;72.85;98984.31;5164250;28;20995;-83
2022/10/23 06:29:56;;;;;;;8.13;4.13;;;;;;;12.68;72.53;98974.41;5164468;28;20725;-83
2022/10/23 06:32:46;;;;;;;9.70;4.55;;;;;;;12.72;73.23;98963.44;5159554;28;20451;-84
2022/10/23 06:35:37;;;;;;;7.32;3.80;;;;;;;12.72;72.45;98945.66;5186522;28;20535;-84
2022/10/23 06:38:28;;;;;;;11.80;3.60;;;;;;;12.92;72.54;98978.19;5156801;28;20420;-84
2022/10/23 06:41:20;;;;;;;8.02;3.70;;;;;;;12.89;72.94;98975.84;5185827;28;20060;-84
2022/10/23 06:44:16;;;;;;;4.25;3.28;;;;;;;13.02;72.50;98976.22;5133805;28;20058;-84
2022/10/23 06:47:14;;;;;;;5.90;3.13;;;;;;;12.96;72.59;98970.72;5166039;28;20061;-85
2022/10/23 06:50:45;;;;;;;7.50;3.08;;;;;;;13.18;72.66;98972.81;5126697;28;20105;-84
2022/10/23 06:53:43;;;;;;;3.90;3.10;;;;;;;13.35;71.88;98987.03;5154332;28;20050;-84
2022/10/23 06:56:53;;;;;;;4.80;3.55;;;;;;;13.21;72.80;98984.94;5148888;28;20073;-83
2022/10/23 06:59:52;;;;;;;4.72;3.03;;;;;;;13.43;71.81;98973.72;5155429;28;20084;-84
2022/10/23 07:02:46;;;;;;;9.90;3.50;;;;;;;13.66;71.60;98979.28;5131368;28;20066;-83
2022/10/23 07:05:37;;;;;;;8.55;3.40;;;;;;;13.57;71.54;98961.59;5148814;28;20073;-83
2022/10/23 07:08:28;;;;;;;5.15;3.10;;;;;;;13.47;71.38;98968.91;5151851;28;20069;-83
2022/10/23 07:11:19;;;;;;;5.68;2.72;;;;;;;13.62;71.19;98956.63;5152820;28;20053;-83
2022/10/23 07:14:12;;;;;;;4.90;3.20;;;;;;;13.67;70.71;98972.13;5145053;28;20082;-83
2022/10/23 07:17:04;;;;;;;4.25;2.58;;;;;;;13.73;71.01;98958.13;5134357;28;20164;-83
2022/10/23 07:19:55;;;;;;;6.80;3.00;;;;;;;13.98;70.44;98978.50;5138691;28;20066;-84
2022/10/23 07:22:50;;;;;;;6.78;2.80;;;;;;;14.18;69.20;98975.50;5160585;28;20436;-83
2022/10/23 07:25:49;;;;;;;5.03;2.65;;;;;;;14.19;70.09;98977.16;5152945;28;20085;-84
2022/10/23 07:28:46;;;;;;;5.88;2.83;;;;;;;14.25;70.21;98969.31;5148940;28;20055;-84
2022/10/23 07:31:41;;;;;;;4.00;2.90;;;;;;;14.28;70.02;98973.50;5169923;28;20107;-83
2022/10/23 07:34:51;;;;;;;6.25;3.03;;;;;;;14.31;69.60;98973.16;5164303;28;20055;-84
2022/10/23 07:37:47;;;;;;;3.65;2.70;;;;;;;14.55;69.41;98980.31;5128756;28;20061;-84
2022/10/23 07:40:37;;;;;;;3.70;2.58;;;;;;;14.67;69.31;98962.97;5160913;28;20048;-85
2022/10/23 07:43:31;;;;;;;4.00;2.72;;;;;;;15.04;68.65;98991.69;5161794;28;20067;-82
2022/10/23 07:46:26;;;;;;;4.45;2.90;;;;;;;14.79;67.50;98982.91;5153850;28;20196;-84
2022/10/23 07:49:17;;;;;;;7.10;2.85;;;;;;;15.22;67.95;98971.94;5137035;28;20050;-82
2022/10/23 07:52:07;;;;;;;6.50;2.75;;;;;;;15.27;66.57;98989.09;5159156;28;20635;-82
2022/10/23 07:55:17;;;;;;;4.45;2.90;;;;;;;14.99;66.96;98959.34;5148729;28;20053;-83
2022/10/23 07:58:20;;;;;;;7.38;2.65;;;;;;;15.40;66.42;98993.06;5141952;28;20097;-82
2022/10/23 08:01:36;;;;;;;3.00;2.30;;;;;;;15.60;65.86;98998.81;5146872;28;20072;-82
2022/10/23 08:04:26;;;;;;;4.43;2.88;;;;;;;16.05;65.24;98994.50;5148128;28;20053;-81
2022/10/23 08:07:30;;;;;;;6.07;2.88;;;;;;;16.64;63.84;98983.94;5146667;28;20061;-82
2022/10/23 08:10:20;;;;;;;7.35;2.80;;;;;;;16.73;64.35;98990.06;5136788;28;20053;-82
2022/10/23 08:13:12;;;;;;;6.07;2.50;;;;;;;17.20;63.39;98988.88;5148858;28;20084;-83
2022/10/23 08:16:21;;;;;;;4.32;2.20;;;;;;;17.54;63.70;98959.59;5137575;28;20104;-82
2022/10/23 08:19:30;;;;;;;7.93;2.25;;;;;;;17.94;60.87;98964.56;5147822;28;20050;-82
2022/10/23 08:22:21;;;;;;;4.05;2.35;;;;;;;18.34;59.87;98952.31;5150208;28;20190;-83
2022/10/23 08:25:12;;;;;;;3.88;2.42;;;;;;;18.49;60.50;98960.31;5142690;28;20054;-82
2022/10/23 08:28:05;;;;;;;6.60;2.47;;;;;;;18.97;58.08;98963.94;5125015;28;20298;-82
2022/10/23 08:31:15;;;;;;;4.60;2.15;;;;;;;19.20;58.05;98947.53;5136206;28;20065;-82
2022/10/23 08:34:21;;;;;;;7.25;2.30;;;;;;;19.51;57.00;98951.56;5146790;28;20054;-82
2022/10/23 08:37:13;;;;;;;8.38;2.17;;;;;;;19.62;56.20;98932.13;5116230;28;20050;-82
2022/10/23 08:40:04;;;;;;;4.72;1.98;;;;;;;19.28;57.23;98933.06;5133063;28;20065;-82
2022/10/23 08:43:40;;;;;;;3.20;1.75;;;;;;;18.89;57.66;98939.91;5135880;28;20050;-82
2022/10/23 08:46:48;;;;;;;2.15;1.63;;;;;;;19.23;56.12;98919.41;5158576;28;20053;-81
2022/10/23 08:50:10;;;;;;;5.47;1.73;;;;;;;19.58;57.58;98933.56;5152539;28;20229;-82
2022/10/23 08:53:26;;;;;;;6.75;1.75;;;;;;;20.25;54.48;98922.91;5152621;28;20061;-83
2022/10/23 08:56:32;;;;;;;6.15;1.50;;;;;;;20.39;54.43;98913.75;5164066;28;20126;-82
2022/10/23 09:03:16;;;;;;;5.53;1.48;;;;;;;19.79;55.45;98910.25;5166719;28;20077;-84
2022/10/23 09:06:51;;;;;;;4.65;1.45;;;;;;;20.56;53.69;98916.88;5153503;28;20505;-83
2022/10/23 09:09:48;;;;;;;4.32;1.35;;;;;;;21.16;53.17;98928.34;5153963;28;20065;-83
2022/10/23 09:12:39;;;;;;;5.45;1.38;;;;;;;21.91;52.06;98923.16;5167687;28;20144;-83
2022/10/23 09:15:43;;;;;;;3.38;1.27;;;;;;;22.19;51.40;98921.94;5141202;28;20058;-82
2022/10/23 09:18:34;;;;;;;;;;;;;;;22.59;49.18;98930.50;5169609;28;20061;-82
2022/10/23 09:21:26;;;;;;;6.20;1.10;;;;;;;22.51;48.32;98923.47;5118984;28;19921;-83
2022/10/23 09:24:19;;;;;;;3.85;1.00;;;;;;;21.80;49.01;98924.69;5147549;28;20061;-83
2022/10/23 09:27:15;;;;;;;5.22;1.10;;;;;;;21.70;50.75;98927.03;5148213;28;20061;-83
2022/10/23 09:30:06;;;;;;;1.92;1.15;;;;;;;22.08;49.65;98933.41;5152577;28;20057;-83
2022/10/23 09:32:57;;;;;;;5.90;1.30;;;;;;;22.75;47.50;98923.69;5178678;28;20053;-83
2022/10/23 09:36:05;;;;;;;2.03;1.00;;;;;;;23.05;50.24;98925.69;5147051;28;20054;-82
2022/10/23 09:38:57;;;;;;;5.55;1.20;;;;;;;22.73;48.73;98891.47;5133296;28;20452;-82
2022/10/23 09:41:47;;;;;;;1.73;0.95;;;;;;;22.66;48.82;98892.59;5137378;28;20570;-83
2022/10/23 09:44:47;;;;;;;3.22;0.90;;;;;;;22.69;48.54;98900.25;5173201;28;20052;-83
2022/10/23 09:47:38;;;;;;;4.35;1.25;;;;;;;22.44;49.96;98892.19;5142709;28;20059;-83
2022/10/23 09:50:28;;;;;;;1.85;1.00;;;;;;;22.76;49.78;98895.59;5116886;28;20057;-82
2022/10/23 09:53:38;;;;;;;1.63;0.98;;;;;;;22.63;49.39;98877.66;5113929;28;20062;-82
2022/10/23 09:56:31;;;;;;;5.25;0.90;;;;;;;22.79;50.47;98875.41;5143782;28;20050;-81
2022/10/23 09:59:31;;;;;;;3.25;0.90;;;;;;;22.55;50.86;98866.31;5150364;28;20050;-81
2022/10/23 10:02:27;;;;;;;2.85;0.93;;;;;;;22.35;49.09;98875.47;5166416;28;20691;-81
2022/10/23 10:05:40;;;;;;;4.55;1.50;;;;;;;21.87;50.86;98846.34;5144891;28;20050;-81
2022/10/23 10:08:45;;;;;;;3.33;1.17;;;;;;;22.09;51.54;98870.28;5169934;28;20084;-81
2022/10/23 10:11:45;;;;;;;5.88;1.00;;;;;;;22.27;49.24;98863.03;5170615;28;20090;-82
2022/10/23 10:14:54;;;;;;;1.50;0.70;;;;;;;22.18;49.68;98879.75;5170614;28;20562;-82
2022/10/23 10:18:11;;;;;;;4.07;0.80;;;;;;;22.78;46.80;98889.94;5138879;28;20140;-82
2022/10/23 10:21:22;;;;;;;3.22;0.93;;;;;;;22.49;49.54;98881.56;5154173;28;20042;-82
2022/10/23 10:24:15;;;;;;;3.20;0.80;;;;;;;22.34;48.70;98883.78;5156870;28;20053;-82
2022/10/23 10:27:20;;;;;;;3.42;0.90;;;;;;;22.38;47.06;98872.28;5164866;28;20603;-82
2022/10/23 10:30:21;;;;;;;1.25;0.70;;;;;;;22.18;48.71;98858.16;5154937;28;20069;-82
2022/10/23 10:33:21;;;;;;;5.45;0.80;;;;;;;22.11;48.45;98868.97;5164658;28;20058;-82
2022/10/23 10:36:26;;;;;;;1.77;1.25;;;;;;;22.19;51.00;98867.94;5145532;28;20058;-82
2022/10/23 10:39:32;;;;;;;1.02;0.80;;;;;;;22.01;48.81;98865.97;5160413;28;20136;-83
2022/10/23 10:42:24;;;;;;;1.73;0.75;;;;;;;22.10;49.82;98867.34;5158571;28;20050;-84
2022/10/23 10:45:25;;;;;;;3.15;0.77;;;;;;;22.08;48.47;98860.50;5150297;28;20050;-83
2022/10/23 10:48:48;;;;;;;1.42;0.80;;;;;;;21.65;49.42;98828.88;5141644;28;20523;-82
2022/10/23 10:52:29;;;;;;;1.73;0.90;;;;;;;21.52;50.82;98819.88;5170609;28;20140;-83
2022/10/23 10:55:39;;;;;;;0.80;0.80;;;;;;;21.51;50.84;98807.41;5175971;28;20060;-82
2022/10/23 10:58:41;;;;;;;1.17;0.80;;;;;;;21.51;50.96;98818.19;5131513;28;20050;-83
2022/10/23 11:01:39;;;;;;;1.42;0.90;;;;;;;21.66;51.05;98803.56;5134186;28;20089;-82
2022/10/23 11:04:59;;;;;;;3.20;0.98;;;;;;;21.91;51.27;98839.47;5130494;28;20059;-82
2022/10/23 11:08:12;;;;;;;1.48;0.80;;;;;;;21.92;51.83;98841.13;5125663;28;20481;-83
2022/10/23 11:11:12;;;;;;;0.80;0.70;;;;;;;22.19;51.75;98832.81;5150892;28;20112;-83
2022/10/23 11:14:02;;;;;;;4.18;0.98;;;;;;;21.87;51.87;98813.16;5137907;28;20187;-83
2022/10/23 11:17:17;;;;;;;1.13;0.70;;;;;;;22.04;51.10;98830.44;5155093;28;20060;-83
2022/10/23 11:20:27;;;;;;;1.83;0.65;;;;;;;22.01;50.96;98810.09;5166848;28;20054;-83
2022/10/23 11:23:27;;;;;;;2.38;0.90;;;;;;;21.96;52.52;98809.94;5164913;28;20061;-82
2022/10/23 11:26:46;;;;;;;7.22;1.15;;;;;;;21.85;51.66;98805.25;5137571;28;20054;-84
2022/10/23 11:29:58;;;;;;;1.38;0.80;;;;;;;21.77;52.50;98795.56;5167620;28;20056;-84
2022/10/23 11:33:07;;;;;;;2.42;0.68;;;;;;;21.61;52.02;98790.72;5144196;28;20517;-84
2022/10/23 11:36:10;;;;;;;1.13;0.90;;;;;;;21.69;52.64;98785.06;5157315;28;20043;-83
2022/10/23 11:39:14;;;;;;;2.90;0.95;;;;;;;21.74;52.77;98752.00;5166572;28;20540;-84
2022/10/23 11:42:05;;;;;;;4.47;1.08;;;;;;;21.52;52.33;98738.09;5158911;28;20702;-84
2022/10/23 11:44:55;;;;;;;1.88;0.95;;;;;;;21.44;51.89;98736.50;5161788;28;20061;-85
2022/10/23 11:47:56;;;;;;;1.20;0.93;;;;;;;21.70;52.95;98767.00;5171261;28;20056;-85
2022/10/23 11:51:16;;;;;;;4.28;0.60;;;;;;;21.68;52.93;98758.28;5165902;28;20057;-85
2022/10/23 11:54:14;;;;;;;2.50;1.00;;;;;;;21.74;53.14;98750.13;5135977;28;20061;-85
2022/10/23 11:57:10;;;;;;;2.17;1.00;;;;;;;21.75;52.73;98740.16;5160330;28;20098;-84
2022/10/23 12:00:00;;;;;;;2.42;0.90;;;;;;;21.60;53.13;98705.44;5151021;28;20050;-85
2022/10/23 12:02:53;;;;;;;1.83;0.90;;;;;;;22.00;51.23;98746.34;5150445;28;20097;-85
2022/10/23 12:05:58;;;;;;;1.83;0.90;;;;;;;21.81;52.78;98736.56;5138250;28;20535;-85
2022/10/23 12:08:52;;;;;;;1.10;0.82;;;;;;;21.89;53.88;98743.59;5146464;28;20446;-84
2022/10/23 12:11:46;;;;;;;1.55;1.05;;;;;;;22.08;53.79;98756.03;5149640;28;20054;-85
2022/10/23 12:14:37;;;;;;;6.18;1.08;;;;;;;22.12;53.50;98732.09;5136036;28;20566;-84
2022/10/23 12:17:34;;;;;;;1.70;1.03;;;;;;;22.34;52.91;98744.13;5135786;28;20069;-83
2022/10/23 12:20:34;;;;;;;2.95;1.17;;;;;;;22.17;53.30;98716.91;5135865;28;20073;-84
2022/10/23 12:23:32;;;;;;;3.45;1.13;;;;;;;22.19;54.18;98712.13;5137993;28;20054;-84
2022/10/23 12:26:36;;;;;;;1.45;0.90;;;;;;;22.15;54.27;98715.44;5146789;28;20052;-85
2022/10/23 12:29:26;;;;;;;3.47;1.35;;;;;;;22.32;52.68;98724.66;5167332;28;20500;-85
2022/10/23 12:32:42;;;;;;;1.45;0.93;;;;;;;22.39;55.09;98728.09;5183837;28;20050;-83
2022/10/23 12:35:56;;;;;;;3.88;1.10;;;;;;;22.44;57.01;98735.50;5162295;28;20551;-83
2022/10/23 12:38:48;;;;;;;1.67;0.80;;;;;;;22.44;53.48;98719.28;5134048;28;20424;-83
2022/10/23 12:41:38;;;;;;;1.13;0.98;;;;;;;22.55;54.84;98704.19;5148393;28;20072;-83
2022/10/23 12:44:29;;;;;;;2.17;1.30;;;;;;;22.59;55.63;98711.63;5150254;28;20050;-83
2022/10/23 12:47:20;;;;;;;2.88;1.23;;;;;;;22.70;54.55;98696.50;5135083;28;20652;-83
2022/10/23 12:50:22;;;;;;;2.50;0.98;;;;;;;22.88;52.94;98707.28;5149039;28;20077;-84
2022/10/23 12:53:15;;;;;;;2.25;1.42;;;;;;;;;;5140876;28;20074;-83
2022/10/23 12:56:05;;;;;;;4.53;1.40;;;;;;;23.15;49.59;98704.19;5166028;28;20069;-84
2022/10/23 12:58:59;;;;;;;3.83;1.00;;;;;;;23.13;50.92;98684.66;5174412;28;20043;-84
2022/10/23 13:01:49;;;;;;;3.47;1.10;;;;;;;23.20;48.11;98696.19;5137741;28;20156;-84
2022/10/23 13:04:42;;;;;;;2.38;0.85;;;;;;;23.07;50.90;98680.19;5143739;28;20097;-83
2022/10/23 13:07:42;;;;;;;3.83;1.52;;;;;;;23.21;48.93;98676.19;5151632;28;20049;-84
2022/10/23 13:10:35;;;;;;;3.40;0.95;;;;;;;23.21;50.55;98655.41;5150851;28;20185;-83
2022/10/23 13:13:28;;;;;;;2.75;1.20;;;;;;;23.51;48.66;98675.28;5148356;28;20056;-81
2022/10/23 13:16:22;;;;;;;2.33;1.20;;;;;;;23.48;47.63;98659.50;5166384;28;20057;-83
2022/10/23 13:19:26;;;;;;;4.13;1.30;;;;;;;23.39;47.79;98653.63;5183978;28;20089;-83
2022/10/23 13:22:21;;;;;;;3.10;1.20;;;;;;;23.21;49.06;98627.50;5183071;28;20544;-84
2022/10/23 13:25:31;;;;;;;2.92;1.30;;;;;;;23.28;50.00;98641.75;5141244;28;20078;-84
2022/10/23 13:28:25;;;;;;;3.35;1.00;;;;;;;23.23;49.99;98640.81;5161946;28;20191;-84
2022/10/23 13:31:15;;;;;;;3.03;1.20;;;;;;;23.48;48.07;98637.84;5148778;28;20153;-83
2022/10/23 13:34:27;;;;;;;3.10;1.00;;;;;;;23.67;47.41;98636.66;5149497;28;20412;-84
2022/10/23 13:37:29;;;;;;;1.70;1.00;;;;;;;23.62;47.51;98634.69;5149529;28;20050;-81
2022/10/23 13:40:23;;;;;;;2.40;1.00;;;;;;;23.16;50.65;98639.03;5136678;28;20050;-82
2022/10/23 13:43:17;;;;;;;2.55;0.93;;;;;;;22.91;51.32;98625.72;5153689;28;20132;-82
2022/10/23 13:46:15;;;;;;;4.53;1.23;;;;;;;22.77;51.32;98623.44;5167651;28;20424;-82
2022/10/23 13:49:05;;;;;;;4.00;1.23;;;;;;;22.86;52.59;98640.97;5163032;28;20782;-83
2022/10/23 13:51:56;;;;;;;1.65;1.25;;;;;;;22.73;52.16;98631.19;5135495;28;20504;-82
2022/10/23 13:54:46;;;;;;;3.58;1.42;;;;;;;22.80;51.81;98626.50;5149408;28;20046;-83
2022/10/23 13:57:37;;;;;;;5.38;1.52;;;;;;;22.84;51.75;98621.44;5160237;28;20050;-82
2022/10/23 14:00:27;;;;;;;3.45;1.50;;;;;;;22.73;52.53;98625.78;5153610;28;20061;-83